createdAt,value
2023-06-30T00:00:01.148Z,82.2
2023-06-30T00:02:00.821Z,82.4
2023-06-30T00:04:01.010Z,83.2
2023-06-30T00:06:00.829Z,83.4
2023-06-30T00:08:00.619Z,83.0
2023-06-30T00:10:00.821Z,82.8
2023-06-30T00:12:00.828Z,82.4
2023-06-30T00:14:00.663Z,82.5
2023-06-30T00:16:00.663Z,82.0
2023-06-30T00:18:00.762Z,81.8
2023-06-30T00:20:01.060Z,82.1
2023-06-30T00:22:00.668Z,81.9
2023-06-30T00:24:00.898Z,82.6
2023-06-30T00:26:00.691Z,82.7
2023-06-30T00:28:00.605Z,82.2
2023-06-30T00:30:00.591Z,81.8
2023-06-30T00:32:00.866Z,81.4
2023-06-30T00:34:00.807Z,81.7
2023-06-30T00:36:00.922Z,81.9
2023-06-30T00:38:00.670Z,82.4
2023-06-30T00:40:01.044Z,82.2
2023-06-30T00:42:00.665Z,81.6
2023-06-30T00:44:00.783Z,81.5
2023-06-30T00:46:03.195Z,82.0
2023-06-30T00:48:00.985Z,82.5
2023-06-30T00:50:00.628Z,82.9
2023-06-30T00:52:01.304Z,82.9
2023-06-30T00:54:00.742Z,83.1
2023-06-30T00:56:00.871Z,83.0
2023-06-30T00:58:00.595Z,82.2
2023-06-30T01:00:00.804Z,82.2
2023-06-30T01:02:09.209Z,81.8
2023-06-30T01:04:12.129Z,81.7
2023-06-30T01:06:13.404Z,81.7
2023-06-30T01:08:09.098Z,84.1
2023-06-30T01:10:06.750Z,85.5
2023-06-30T01:12:01.194Z,91.1
2023-06-30T01:14:03.119Z,90.8
2023-06-30T01:16:02.353Z,92.7
2023-06-30T01:18:02.035Z,95.6
2023-06-30T01:20:02.464Z,96.8
2023-06-30T01:22:04.685Z,99.1
2023-06-30T01:24:04.932Z,100.0
2023-06-30T01:26:01.589Z,100.0
2023-06-30T01:28:02.873Z,100.0
2023-06-30T01:30:01.091Z,100.0
2023-06-30T01:32:00.953Z,100.0
2023-06-30T01:34:01.977Z,100.0
2023-06-30T01:36:00.948Z,100.0
2023-06-30T01:38:00.766Z,100.0
2023-06-30T01:40:00.902Z,100.0
2023-06-30T01:42:01.217Z,100.0
2023-06-30T01:44:02.448Z,100.0
2023-06-30T01:46:01.173Z,100.0
2023-06-30T01:48:01.103Z,100.0
2023-06-30T01:50:00.738Z,100.0
2023-06-30T01:52:00.746Z,100.0
2023-06-30T01:54:00.657Z,100.0
2023-06-30T01:56:00.687Z,100.0
2023-06-30T01:58:01.098Z,100.0
2023-06-30T02:00:01.038Z,100.0
2023-06-30T02:02:00.664Z,100.0
2023-06-30T02:04:00.730Z,100.0
2023-06-30T02:06:00.737Z,100.0
2023-06-30T02:08:00.799Z,100.0
2023-06-30T02:10:01.230Z,100.0
2023-06-30T02:12:00.891Z,100.0
2023-06-30T02:14:00.648Z,100.0
2023-06-30T02:16:00.680Z,100.0
2023-06-30T02:18:00.765Z,100.0
2023-06-30T02:20:01.556Z,100.0
2023-06-30T02:22:00.584Z,100.0
2023-06-30T02:24:00.981Z,100.0
2023-06-30T02:26:00.863Z,100.0
2023-06-30T02:28:00.622Z,100.0
2023-06-30T02:30:01.035Z,100.0
2023-06-30T02:32:00.749Z,100.0
2023-06-30T02:34:00.633Z,100.0
2023-06-30T02:36:01.230Z,100.0
2023-06-30T02:38:00.669Z,100.0
2023-06-30T02:40:01.008Z,100.0
2023-06-30T02:42:00.634Z,100.0
2023-06-30T02:44:00.642Z,100.0
2023-06-30T02:46:00.733Z,100.0
2023-06-30T02:48:00.886Z,100.0
2023-06-30T02:50:01.154Z,100.0
2023-06-30T02:52:00.708Z,100.0
2023-06-30T02:54:00.822Z,100.0
2023-06-30T02:56:00.837Z,100.0
2023-06-30T02:58:00.844Z,100.0
2023-06-30T03:00:00.771Z,100.0
2023-06-30T03:02:00.801Z,100.0
2023-06-30T03:04:00.918Z,100.0
2023-06-30T03:06:00.642Z,100.0
2023-06-30T03:08:02.929Z,100.0
2023-06-30T03:10:01.044Z,100.0
2023-06-30T03:12:00.820Z,100.0
2023-06-30T03:14:00.700Z,100.0
2023-06-30T03:16:00.605Z,100.0
2023-06-30T03:18:00.749Z,100.0
2023-06-30T03:20:00.696Z,100.0
2023-06-30T03:22:00.743Z,100.0
2023-06-30T03:24:01.037Z,100.0
2023-06-30T03:26:00.919Z,100.0
2023-06-30T03:28:00.726Z,100.0
2023-06-30T03:30:01.290Z,100.0
2023-06-30T03:32:00.745Z,100.0
2023-06-30T03:34:00.667Z,100.0
2023-06-30T03:36:00.790Z,100.0
2023-06-30T03:38:00.596Z,100.0
2023-06-30T03:40:00.754Z,100.0
2023-06-30T03:42:00.792Z,100.0
2023-06-30T03:44:00.711Z,100.0
2023-06-30T03:46:00.631Z,100.0
2023-06-30T03:48:00.959Z,100.0
2023-06-30T03:50:00.666Z,100.0
2023-06-30T03:52:00.613Z,100.0
2023-06-30T03:54:00.698Z,100.0
2023-06-30T03:56:00.622Z,100.0
2023-06-30T03:58:01.803Z,100.0
2023-06-30T04:00:00.705Z,100.0
2023-06-30T04:02:00.593Z,100.0
2023-06-30T04:04:00.733Z,100.0
2023-06-30T04:06:00.618Z,100.0
2023-06-30T04:08:01.284Z,100.0
2023-06-30T04:10:01.440Z,100.0
2023-06-30T04:12:01.026Z,100.0
2023-06-30T04:14:00.821Z,100.0
2023-06-30T04:16:00.616Z,100.0
2023-06-30T04:18:00.695Z,100.0
2023-06-30T04:20:00.763Z,100.0
2023-06-30T04:22:03.896Z,100.0
2023-06-30T04:24:00.884Z,100.0
2023-06-30T04:26:00.579Z,100.0
2023-06-30T04:28:00.655Z,100.0
2023-06-30T04:30:00.729Z,100.0
2023-06-30T04:32:00.898Z,100.0
2023-06-30T04:34:00.669Z,100.0
2023-06-30T04:36:01.358Z,100.0
2023-06-30T04:38:00.706Z,100.0
2023-06-30T04:40:00.696Z,100.0
2023-06-30T04:42:00.677Z,100.0
2023-06-30T04:44:00.786Z,100.0
2023-06-30T04:46:00.740Z,100.0
2023-06-30T04:48:00.892Z,100.0
2023-06-30T04:50:00.619Z,100.0
2023-06-30T04:52:00.720Z,100.0
2023-06-30T04:54:01.054Z,100.0
2023-06-30T04:56:01.028Z,100.0
2023-06-30T04:58:00.733Z,100.0
2023-06-30T05:00:00.867Z,100.0
2023-06-30T05:02:00.788Z,100.0
2023-06-30T05:04:00.797Z,100.0
2023-06-30T05:06:00.728Z,100.0
2023-06-30T05:08:00.568Z,100.0
2023-06-30T05:10:00.754Z,100.0
2023-06-30T05:12:00.934Z,100.0
2023-06-30T05:14:00.638Z,100.0
2023-06-30T05:16:00.665Z,100.0
2023-06-30T05:18:00.744Z,100.0
2023-06-30T05:20:00.769Z,100.0
2023-06-30T05:22:00.607Z,100.0
2023-06-30T05:24:02.276Z,100.0
2023-06-30T05:26:00.614Z,100.0
2023-06-30T05:28:00.589Z,100.0
2023-06-30T05:30:00.581Z,100.0
2023-06-30T05:32:00.712Z,100.0
2023-06-30T05:34:00.803Z,100.0
2023-06-30T05:36:00.932Z,100.0
2023-06-30T05:38:00.838Z,100.0
2023-06-30T05:40:00.711Z,100.0
2023-06-30T05:42:01.275Z,100.0
2023-06-30T05:44:00.748Z,100.0
2023-06-30T05:46:00.929Z,100.0
2023-06-30T05:48:00.773Z,100.0
2023-06-30T05:50:00.587Z,100.0
2023-06-30T05:52:00.818Z,100.0
2023-06-30T05:54:01.212Z,100.0
2023-06-30T05:56:00.714Z,100.0
2023-06-30T05:58:00.710Z,100.0
2023-06-30T06:00:01.005Z,100.0
2023-06-30T06:02:00.619Z,100.0
2023-06-30T06:04:01.229Z,100.0
2023-06-30T06:06:00.753Z,100.0
2023-06-30T06:08:00.902Z,100.0
2023-06-30T06:10:00.765Z,100.0
2023-06-30T06:12:00.957Z,100.0
2023-06-30T06:14:00.627Z,100.0
2023-06-30T06:16:01.626Z,100.0
2023-06-30T06:18:00.876Z,100.0
2023-06-30T06:20:01.085Z,100.0
2023-06-30T06:22:00.607Z,100.0
2023-06-30T06:24:00.904Z,100.0
2023-06-30T06:26:00.909Z,100.0
2023-06-30T06:28:00.635Z,100.0
2023-06-30T06:30:00.927Z,100.0
2023-06-30T06:32:00.639Z,100.0
2023-06-30T06:34:00.724Z,100.0
2023-06-30T06:36:01.663Z,100.0
2023-06-30T06:38:01.240Z,100.0
2023-06-30T06:40:00.646Z,100.0
2023-06-30T06:42:00.638Z,100.0
2023-06-30T06:44:00.736Z,100.0
2023-06-30T06:46:00.633Z,100.0
2023-06-30T06:48:18.781Z,100.0
2023-06-30T06:50:00.606Z,100.0
2023-06-30T06:52:03.378Z,100.0
2023-06-30T06:54:01.289Z,100.0
2023-06-30T06:56:01.980Z,100.0
2023-06-30T06:58:00.637Z,100.0
2023-06-30T07:00:02.801Z,100.0
2023-06-30T07:02:00.619Z,100.0
2023-06-30T07:04:00.946Z,100.0
2023-06-30T07:06:00.618Z,100.0
2023-06-30T07:08:00.773Z,100.0
2023-06-30T07:10:00.707Z,100.0
2023-06-30T07:12:00.852Z,100.0
2023-06-30T07:14:00.603Z,100.0
2023-06-30T07:16:00.790Z,100.0
2023-06-30T07:18:00.994Z,100.0
2023-06-30T07:20:00.625Z,100.0
2023-06-30T07:22:01.136Z,100.0
2023-06-30T07:24:01.143Z,100.0
2023-06-30T07:26:00.652Z,100.0
2023-06-30T07:28:02.221Z,100.0
2023-06-30T07:30:00.583Z,100.0
2023-06-30T07:32:00.801Z,100.0
2023-06-30T07:34:00.603Z,100.0
2023-06-30T07:36:00.990Z,100.0
2023-06-30T07:38:00.585Z,100.0
2023-06-30T07:40:12.344Z,100.0
2023-06-30T07:42:00.802Z,100.0
2023-06-30T07:44:01.060Z,100.0
2023-06-30T07:46:00.658Z,100.0
2023-06-30T07:48:01.292Z,100.0
2023-06-30T07:50:00.611Z,100.0
2023-06-30T07:52:00.959Z,100.0
2023-06-30T07:54:00.740Z,100.0
2023-06-30T07:56:00.716Z,100.0
2023-06-30T07:58:00.752Z,100.0
2023-06-30T08:00:00.962Z,100.0
2023-06-30T08:02:00.601Z,100.0
2023-06-30T08:04:00.955Z,100.0
2023-06-30T08:06:01.516Z,100.0
2023-06-30T08:08:01.170Z,100.0
2023-06-30T08:10:00.613Z,100.0
2023-06-30T08:12:01.076Z,100.0
2023-06-30T08:14:00.701Z,100.0
2023-06-30T08:16:00.893Z,100.0
2023-06-30T08:18:00.870Z,100.0
2023-06-30T08:20:00.783Z,100.0
2023-06-30T08:22:00.889Z,100.0
2023-06-30T08:24:00.825Z,100.0
2023-06-30T08:26:00.656Z,100.0
2023-06-30T08:28:00.823Z,100.0
2023-06-30T08:30:01.144Z,100.0
2023-06-30T08:32:01.077Z,100.0
2023-06-30T08:34:00.799Z,100.0
2023-06-30T08:36:01.386Z,100.0
2023-06-30T08:38:01.364Z,100.0
2023-06-30T08:46:03.761Z,100.0
2023-06-30T08:48:03.953Z,100.0
2023-06-30T08:50:00.942Z,100.0
2023-06-30T08:52:01.146Z,100.0
2023-06-30T08:54:01.132Z,100.0
2023-06-30T08:56:01.716Z,100.0
2023-06-30T08:58:09.720Z,100.0
2023-06-30T09:00:01.037Z,100.0
2023-06-30T09:02:00.899Z,100.0
2023-06-30T09:04:01.671Z,100.0
2023-06-30T09:06:00.976Z,100.0
2023-06-30T09:08:08.379Z,100.0
2023-06-30T09:10:03.085Z,100.0
2023-06-30T09:12:00.888Z,100.0
2023-06-30T09:14:01.980Z,100.0
2023-06-30T09:16:02.489Z,100.0
2023-06-30T09:18:01.158Z,100.0
2023-06-30T09:20:00.752Z,100.0
2023-06-30T09:22:51.069Z,100.0
2023-06-30T09:24:00.923Z,100.0
2023-06-30T09:26:00.740Z,100.0
2023-06-30T09:28:08.101Z,100.0
2023-06-30T09:30:00.724Z,100.0
2023-06-30T09:32:01.218Z,100.0
2023-06-30T09:34:09.609Z,100.0
2023-06-30T09:36:03.311Z,100.0
2023-06-30T09:38:00.702Z,100.0
2023-06-30T09:40:00.763Z,100.0
2023-06-30T09:42:00.653Z,100.0
2023-06-30T09:44:00.668Z,100.0
2023-06-30T09:46:02.267Z,99.5
2023-06-30T09:48:00.943Z,98.9
2023-06-30T09:50:00.723Z,99.0
2023-06-30T09:52:01.635Z,98.3
2023-06-30T09:54:00.849Z,98.0
2023-06-30T09:56:00.819Z,99.8
2023-06-30T09:58:00.819Z,99.7
2023-06-30T10:00:00.856Z,100.0
2023-06-30T10:02:02.472Z,100.0
2023-06-30T10:04:00.999Z,100.0
2023-06-30T10:06:01.727Z,100.0
2023-06-30T10:08:01.647Z,100.0
2023-06-30T10:10:02.514Z,100.0
2023-06-30T10:12:01.985Z,100.0
2023-06-30T10:14:01.508Z,100.0
2023-06-30T10:16:01.823Z,100.0
2023-06-30T10:18:02.575Z,100.0
2023-06-30T10:20:05.453Z,100.0
2023-06-30T10:22:01.024Z,100.0
2023-06-30T10:24:02.876Z,100.0
2023-06-30T10:26:03.206Z,100.0
2023-06-30T10:28:00.893Z,100.0
2023-06-30T10:30:01.790Z,100.0
2023-06-30T10:32:01.620Z,100.0
2023-06-30T10:34:01.368Z,100.0
2023-06-30T10:36:01.552Z,100.0
2023-06-30T10:38:01.336Z,100.0
2023-06-30T10:40:05.932Z,100.0
2023-06-30T10:42:00.759Z,99.6
2023-06-30T10:44:09.589Z,99.1
2023-06-30T10:46:04.880Z,100.0
2023-06-30T10:48:08.153Z,99.6
2023-06-30T10:50:11.141Z,98.6
2023-06-30T10:52:04.166Z,98.4
2023-06-30T10:54:00.908Z,97.8
2023-06-30T10:56:02.203Z,97.3
2023-06-30T10:58:03.331Z,97.4
2023-06-30T11:00:05.667Z,97.1
2023-06-30T11:02:11.764Z,95.5
2023-06-30T11:04:10.988Z,94.9
2023-06-30T11:06:15.090Z,93.9
2023-06-30T11:08:05.114Z,93.4
2023-06-30T11:10:03.795Z,92.4
2023-06-30T11:12:01.329Z,92.1
2023-06-30T11:14:04.407Z,90.3
2023-06-30T11:16:00.739Z,88.8
2023-06-30T11:18:02.060Z,88.8
2023-06-30T11:20:10.023Z,88.3
2023-06-30T11:22:20.515Z,85.7
2023-06-30T11:24:14.184Z,83.4
2023-06-30T11:26:11.747Z,83.2
2023-06-30T11:28:01.564Z,83.4
2023-06-30T11:30:01.505Z,82.9
2023-06-30T11:32:00.912Z,83.5
2023-06-30T11:34:03.315Z,82.5
2023-06-30T11:36:00.818Z,82.5
2023-06-30T11:38:01.004Z,82.3
2023-06-30T11:40:00.951Z,81.2
2023-06-30T11:42:00.956Z,79.0
2023-06-30T11:44:01.133Z,78.2
2023-06-30T11:46:02.696Z,80.1
2023-06-30T11:48:01.050Z,81.1
2023-06-30T11:50:05.286Z,81.1
2023-06-30T11:52:02.315Z,80.5
2023-06-30T11:54:00.806Z,81.4
2023-06-30T11:56:01.668Z,80.2
2023-06-30T11:58:02.162Z,80.3
2023-06-30T12:00:07.278Z,79.4
2023-06-30T12:02:03.562Z,79.0
2023-06-30T12:04:20.755Z,79.5
2023-06-30T12:06:00.867Z,79.9
2023-06-30T12:08:02.730Z,80.0
2023-06-30T12:10:01.264Z,78.5
2023-06-30T12:12:01.075Z,77.2
2023-06-30T12:14:07.439Z,76.3
2023-06-30T12:16:00.981Z,74.2
2023-06-30T12:18:01.572Z,74.4
2023-06-30T12:20:01.081Z,74.2
2023-06-30T12:22:01.480Z,73.1
2023-06-30T12:24:01.836Z,73.1
2023-06-30T12:26:01.245Z,71.2
2023-06-30T12:28:02.206Z,70.7
2023-06-30T12:30:01.056Z,70.3
2023-06-30T12:32:01.641Z,69.0
2023-06-30T12:34:00.715Z,68.6
2023-06-30T12:36:04.659Z,68.3
2023-06-30T12:38:02.106Z,68.0
2023-06-30T12:40:01.417Z,67.5
2023-06-30T12:42:01.593Z,67.3
2023-06-30T12:44:00.779Z,66.6
2023-06-30T12:46:00.948Z,65.9
2023-06-30T12:48:01.687Z,66.1
2023-06-30T12:50:01.942Z,64.9
2023-06-30T12:52:03.512Z,65.2
2023-06-30T12:54:00.663Z,63.3
2023-06-30T12:56:00.855Z,64.1
2023-06-30T12:58:00.919Z,62.5
2023-06-30T13:00:02.613Z,61.2
2023-06-30T13:02:00.821Z,62.5
2023-06-30T13:04:00.986Z,62.5
2023-06-30T13:06:00.837Z,62.2
2023-06-30T13:08:00.747Z,62.4
2023-06-30T13:10:01.481Z,61.1
2023-06-30T13:12:01.087Z,63.0
2023-06-30T13:14:01.122Z,61.4
2023-06-30T13:16:00.865Z,60.8
2023-06-30T13:18:00.733Z,60.4
2023-06-30T13:20:00.847Z,59.5
2023-06-30T13:22:00.702Z,59.7
2023-06-30T13:24:00.800Z,57.5
2023-06-30T13:26:01.081Z,57.1
2023-06-30T13:28:01.035Z,55.6
2023-06-30T13:30:00.973Z,56.4
2023-06-30T13:32:00.764Z,56.1
2023-06-30T13:34:01.051Z,53.2
2023-06-30T13:36:01.479Z,50.9
2023-06-30T13:38:00.728Z,51.1
2023-06-30T13:40:01.039Z,50.4
2023-06-30T13:42:00.703Z,50.4
2023-06-30T13:44:00.676Z,49.5
2023-06-30T13:46:00.914Z,51.1
2023-06-30T13:48:01.351Z,49.3
2023-06-30T13:50:00.976Z,48.8
2023-06-30T13:52:00.877Z,47.4
2023-06-30T13:54:00.738Z,45.8
2023-06-30T13:56:00.723Z,45.1
2023-06-30T13:58:00.800Z,45.7
2023-06-30T14:00:00.836Z,45.4
2023-06-30T14:02:01.703Z,45.6
2023-06-30T14:04:00.969Z,44.6
2023-06-30T14:06:01.154Z,44.4
2023-06-30T14:08:00.775Z,45.1
2023-06-30T14:10:00.948Z,45.7
2023-06-30T14:12:01.079Z,44.8
2023-06-30T14:14:00.733Z,44.6
2023-06-30T14:16:00.778Z,43.6
2023-06-30T14:18:00.751Z,43.7
2023-06-30T14:20:01.001Z,45.6
2023-06-30T14:22:00.910Z,46.2
2023-06-30T14:24:01.442Z,45.7
2023-06-30T14:26:01.077Z,44.0
2023-06-30T14:28:00.727Z,41.9
2023-06-30T14:30:01.014Z,43.1
2023-06-30T14:32:01.283Z,42.4
2023-06-30T14:34:00.671Z,41.6
2023-06-30T14:36:01.075Z,41.8
2023-06-30T14:38:00.765Z,42.4
2023-06-30T14:40:00.834Z,43.6
2023-06-30T14:42:02.769Z,43.9
2023-06-30T14:44:01.800Z,43.7
2023-06-30T14:46:00.837Z,44.8
2023-06-30T14:48:03.492Z,45.6
2023-06-30T14:50:00.683Z,44.6
2023-06-30T14:52:00.722Z,45.9
2023-06-30T14:54:00.848Z,46.2
2023-06-30T14:56:01.600Z,46.0
2023-06-30T14:58:00.729Z,45.9
2023-06-30T15:00:00.847Z,46.5
2023-06-30T15:02:01.517Z,46.0
2023-06-30T15:04:01.339Z,46.4
2023-06-30T15:06:00.804Z,45.6
2023-06-30T15:08:00.910Z,46.0
2023-06-30T15:10:00.855Z,46.3
2023-06-30T15:12:00.836Z,46.6
2023-06-30T15:14:01.166Z,46.9
2023-06-30T15:16:00.717Z,46.5
2023-06-30T15:18:01.689Z,47.0
2023-06-30T15:20:00.867Z,47.5
2023-06-30T15:22:00.908Z,46.7
2023-06-30T15:24:00.799Z,46.4
2023-06-30T15:26:00.762Z,43.8
2023-06-30T15:28:01.051Z,43.3
2023-06-30T15:30:00.758Z,43.8
2023-06-30T15:32:01.142Z,44.1
2023-06-30T15:34:00.848Z,44.2
2023-06-30T15:36:00.826Z,43.4
2023-06-30T15:38:01.106Z,42.9
2023-06-30T15:40:01.495Z,44.0
2023-06-30T15:42:01.057Z,44.3
2023-06-30T15:44:01.008Z,44.4
2023-06-30T15:46:00.934Z,43.3
2023-06-30T15:48:00.951Z,41.5
2023-06-30T15:50:01.092Z,39.7
2023-06-30T15:52:00.859Z,39.9
2023-06-30T15:54:01.119Z,40.2
2023-06-30T15:56:00.983Z,40.9
2023-06-30T15:58:00.675Z,42.8
2023-06-30T16:04:00.858Z,39.6
2023-06-30T16:06:00.741Z,39.6
2023-06-30T16:08:00.853Z,39.8
2023-06-30T16:10:02.951Z,39.1
2023-06-30T16:12:01.116Z,39.2
2023-06-30T16:14:00.805Z,39.3
2023-06-30T16:16:00.733Z,38.3
2023-06-30T16:18:00.875Z,38.3
2023-06-30T16:20:00.852Z,36.5
2023-06-30T16:22:00.979Z,36.6
2023-06-30T16:24:00.741Z,36.5
2023-06-30T16:26:00.778Z,35.9
2023-06-30T16:28:00.873Z,36.4
2023-06-30T16:30:20.486Z,35.3
2023-06-30T16:32:00.717Z,35.4
2023-06-30T16:34:01.152Z,35.5
2023-06-30T16:36:01.136Z,36.3
2023-06-30T16:38:00.751Z,36.6
2023-06-30T16:40:00.697Z,37.4
2023-06-30T16:42:00.750Z,37.9
2023-06-30T16:44:00.747Z,37.5
2023-06-30T16:46:00.717Z,37.5
2023-06-30T16:48:00.830Z,37.6
2023-06-30T16:50:01.551Z,38.5
2023-06-30T16:52:00.703Z,37.9
2023-06-30T16:54:00.845Z,37.7
2023-06-30T16:56:00.866Z,37.8
2023-06-30T16:58:00.940Z,37.5
2023-06-30T17:00:00.980Z,37.6
2023-06-30T17:02:01.169Z,37.5
2023-06-30T17:04:00.751Z,37.8
2023-06-30T17:06:00.832Z,38.0
2023-06-30T17:08:00.811Z,38.5
2023-06-30T17:10:00.734Z,37.6
2023-06-30T17:12:00.851Z,37.3
2023-06-30T17:14:00.756Z,38.3
2023-06-30T17:16:00.866Z,38.2
2023-06-30T17:18:00.858Z,37.7
2023-06-30T17:20:00.855Z,38.0
2023-06-30T17:22:00.764Z,38.0
2023-06-30T17:24:00.742Z,38.0
2023-06-30T17:26:00.747Z,39.3
2023-06-30T17:28:00.708Z,38.0
2023-06-30T17:30:00.865Z,37.5
2023-06-30T17:32:00.737Z,38.1
2023-06-30T17:34:01.060Z,37.7
2023-06-30T17:36:01.127Z,37.8
2023-06-30T17:38:00.756Z,37.7
2023-06-30T17:40:00.895Z,37.8
2023-06-30T17:42:00.879Z,37.7
2023-06-30T17:44:00.776Z,38.3
2023-06-30T17:46:01.034Z,37.8
2023-06-30T17:48:00.820Z,38.0
2023-06-30T17:50:00.935Z,37.8
2023-06-30T17:52:01.986Z,38.4
2023-06-30T17:54:00.934Z,39.0
2023-06-30T17:56:00.719Z,39.1
2023-06-30T17:58:00.913Z,38.9
2023-06-30T18:00:01.178Z,39.8
2023-06-30T18:02:01.490Z,39.5
2023-06-30T18:04:00.977Z,40.1
2023-06-30T18:06:00.708Z,40.0
2023-06-30T18:08:00.911Z,40.2
2023-06-30T18:10:00.715Z,40.5
2023-06-30T18:12:02.155Z,40.7
2023-06-30T18:14:00.712Z,41.2
2023-06-30T18:16:01.092Z,41.7
2023-06-30T18:18:00.860Z,41.8
2023-06-30T18:20:00.788Z,41.8
2023-06-30T18:22:00.994Z,42.5
2023-06-30T18:24:01.080Z,42.4
2023-06-30T18:26:00.887Z,42.9
2023-06-30T18:28:00.794Z,42.5
2023-06-30T18:30:00.938Z,42.5
2023-06-30T18:32:01.276Z,42.6
2023-06-30T18:34:00.740Z,43.2
2023-06-30T18:36:00.948Z,43.3
2023-06-30T18:38:00.677Z,43.5
2023-06-30T18:40:00.763Z,43.4
2023-06-30T18:42:00.690Z,43.9
2023-06-30T18:44:00.786Z,43.7
2023-06-30T18:46:00.711Z,43.2
2023-06-30T18:48:00.885Z,43.5
2023-06-30T18:50:00.726Z,44.0
2023-06-30T18:52:00.765Z,44.0
2023-06-30T18:54:00.733Z,44.4
2023-06-30T18:56:00.825Z,44.4
2023-06-30T18:58:01.040Z,44.4
2023-06-30T19:00:01.122Z,44.4
2023-06-30T19:02:00.893Z,44.2
2023-06-30T19:04:01.066Z,43.8
2023-06-30T19:06:00.701Z,44.8
2023-06-30T19:08:00.787Z,44.3
2023-06-30T19:10:00.761Z,44.4
2023-06-30T19:12:01.271Z,44.5
2023-06-30T19:14:00.945Z,44.4
2023-06-30T19:16:00.718Z,45.0
2023-06-30T19:18:00.860Z,45.3
2023-06-30T19:20:00.792Z,44.9
2023-06-30T19:22:01.017Z,46.2
2023-06-30T19:24:01.007Z,46.9
2023-06-30T19:26:00.820Z,46.8
2023-06-30T19:28:00.739Z,48.4
2023-06-30T19:30:00.793Z,46.9
2023-06-30T19:32:00.834Z,45.9
2023-06-30T19:34:00.693Z,46.0
2023-06-30T19:36:01.123Z,46.3
2023-06-30T19:38:00.775Z,47.0
2023-06-30T19:40:00.816Z,47.5
2023-06-30T19:42:00.870Z,47.6
2023-06-30T19:44:00.728Z,48.9
2023-06-30T19:46:00.731Z,49.2
2023-06-30T19:48:01.064Z,48.9
2023-06-30T19:50:00.854Z,49.1
2023-06-30T19:52:00.815Z,48.9
2023-06-30T19:54:00.723Z,48.7
2023-06-30T19:56:00.707Z,50.1
2023-06-30T19:58:01.050Z,50.2
2023-06-30T20:00:00.993Z,51.1
2023-06-30T20:02:00.989Z,52.4
2023-06-30T20:04:01.062Z,52.0
2023-06-30T20:06:00.675Z,52.1
2023-06-30T20:08:00.956Z,51.9
2023-06-30T20:10:00.692Z,51.4
2023-06-30T20:12:01.046Z,51.9
2023-06-30T20:14:01.017Z,52.3
2023-06-30T20:16:01.618Z,53.4
2023-06-30T20:18:00.733Z,54.4
2023-06-30T20:20:00.852Z,54.0
2023-06-30T20:22:00.881Z,53.3
2023-06-30T20:24:00.715Z,54.2
2023-06-30T20:26:00.794Z,53.8
2023-06-30T20:28:00.674Z,54.2
2023-06-30T20:30:00.973Z,54.4
2023-06-30T20:32:00.864Z,55.0
2023-06-30T20:34:00.769Z,55.4
2023-06-30T20:36:01.032Z,55.4
2023-06-30T20:38:00.758Z,56.0
2023-06-30T20:40:00.920Z,56.4
2023-06-30T20:42:00.673Z,57.0
2023-06-30T20:44:00.712Z,57.5
2023-06-30T20:46:01.260Z,57.7
2023-06-30T20:48:00.782Z,57.8
2023-06-30T20:50:00.889Z,60.7
2023-06-30T20:52:00.878Z,59.7
2023-06-30T20:54:01.018Z,58.7
2023-06-30T20:56:00.729Z,58.2
2023-06-30T20:58:00.756Z,58.3
2023-06-30T21:00:01.770Z,58.7
2023-06-30T21:02:01.109Z,59.4
2023-06-30T21:04:00.986Z,59.2
2023-06-30T21:06:00.728Z,59.8
2023-06-30T21:08:00.884Z,60.0
2023-06-30T21:10:00.766Z,60.3
2023-06-30T21:12:02.113Z,61.1
2023-06-30T21:14:00.755Z,61.2
2023-06-30T21:16:00.837Z,61.7
2023-06-30T21:18:00.830Z,61.8
2023-06-30T21:20:00.856Z,62.1
2023-06-30T21:22:01.097Z,62.4
2023-06-30T21:24:00.882Z,62.8
2023-06-30T21:26:00.760Z,63.3
2023-06-30T21:28:00.740Z,63.5
2023-06-30T21:30:00.903Z,63.4
2023-06-30T21:32:01.121Z,63.7
2023-06-30T21:34:00.850Z,64.0
2023-06-30T21:36:01.001Z,64.0
2023-06-30T21:38:00.777Z,63.7
2023-06-30T21:40:00.956Z,63.4
2023-06-30T21:42:01.187Z,63.8
2023-06-30T21:44:00.918Z,63.7
2023-06-30T21:46:09.413Z,63.9
2023-06-30T21:48:00.968Z,63.9
2023-06-30T21:50:00.940Z,64.6
2023-06-30T21:52:00.790Z,65.2
2023-06-30T21:54:04.547Z,65.8
2023-06-30T21:56:00.834Z,66.1
2023-06-30T21:58:02.644Z,66.5
2023-06-30T22:00:00.851Z,66.4
2023-06-30T22:02:00.709Z,66.8
2023-06-30T22:04:00.916Z,66.5
2023-06-30T22:06:01.271Z,66.5
2023-06-30T22:08:01.005Z,66.7
2023-06-30T22:10:00.720Z,67.1
2023-06-30T22:12:00.906Z,67.2
2023-06-30T22:14:00.949Z,67.3
2023-06-30T22:16:00.806Z,66.9
2023-06-30T22:18:00.882Z,67.1
2023-06-30T22:20:00.786Z,67.1
2023-06-30T22:22:00.762Z,67.7
2023-06-30T22:24:00.977Z,67.9
2023-06-30T22:26:00.775Z,67.8
2023-06-30T22:28:00.780Z,67.6
2023-06-30T22:30:00.843Z,67.8
2023-06-30T22:32:01.152Z,68.0
2023-06-30T22:34:00.883Z,68.4
2023-06-30T22:36:00.769Z,68.8
2023-06-30T22:38:00.844Z,68.6
2023-06-30T22:40:00.968Z,68.4
2023-06-30T22:42:00.775Z,68.7
2023-06-30T22:44:00.933Z,68.9
2023-06-30T22:46:00.879Z,68.9
2023-06-30T22:48:01.042Z,68.6
2023-06-30T22:50:00.960Z,68.2
2023-06-30T22:52:00.729Z,68.3
2023-06-30T22:54:00.783Z,68.4
2023-06-30T22:56:00.755Z,73.9
2023-06-30T22:58:00.913Z,71.7
2023-06-30T23:00:01.043Z,67.8
2023-06-30T23:04:00.767Z,65.1
2023-06-30T23:06:00.692Z,65.0
2023-06-30T23:08:00.834Z,65.2
2023-06-30T23:10:01.040Z,65.9
2023-06-30T23:12:01.040Z,66.0
2023-06-30T23:14:01.076Z,66.0
2023-06-30T23:16:00.945Z,66.3
2023-06-30T23:18:00.921Z,67.0
2023-06-30T23:20:01.011Z,67.2
2023-06-30T23:22:00.794Z,67.1
2023-06-30T23:24:00.762Z,67.2
2023-06-30T23:26:00.723Z,67.9
2023-06-30T23:28:00.729Z,67.7
2023-06-30T23:30:00.700Z,67.9
2023-06-30T23:32:04.181Z,68.2
2023-06-30T23:34:01.329Z,69.0
2023-06-30T23:36:00.807Z,68.9
2023-06-30T23:38:00.804Z,68.8
2023-06-30T23:40:00.989Z,69.1
2023-06-30T23:42:01.243Z,68.9
2023-06-30T23:44:00.787Z,69.0
2023-06-30T23:46:00.926Z,68.8
2023-06-30T23:48:00.823Z,68.9
2023-06-30T23:50:01.078Z,68.8
2023-06-30T23:52:00.963Z,68.3
2023-06-30T23:54:01.000Z,67.9
2023-06-30T23:56:00.831Z,68.4
2023-06-30T23:58:00.844Z,68.2
